To NAV CANADA Home Page Login to a new session Search on AWWS site Feedback and Comments Disclaimer Vers la page française équivalente Tips FAQ What's new on the site To the Forecasts and Observations / NOTAM section To "File a Flight Plan" website Publications and other links Update of the User's profile FIC Telephone Numbers My Weather Data Folder Route Weather Data Regional Weather Data Local Weather Data To the Forecasts and Observations / NOTAM section
Request Generated 03/28/2017 at 02:20:03 UTC . Weather information available at that time is displayed.

METAR/TAF

MARYS HARBOUR/NL    (show WxCam)

SPECI CYMH 280205Z AUTO 32009G15KT 9SM BKN024 M08/M13 A3018 RMK
SLP222=
METAR CYMH 280200Z AUTO 33010KT 9SM SCT026 M08/M13 A3018 RMK SLP222=
METAR CYMH 280100Z AUTO 34010G17KT 9SM CLR M08/M13 A3017 RMK SLP218=
METAR CYMH 280000Z AUTO 32011G17KT 9SM CLR M07/M12 A3017 RMK SLP218=

TAF CYMH 271938Z 2720/2803 34015G25KT P6SM BKN025 TEMPO 2720/2803 5SM
-SHSN BKN020
RMK FCST BASED ON AUTO OBS. NXT FCST WILL BE ISSUED AT 280845Z=
Your time UTC time
Weather data provided by Environment Canada and NAV CANADA